Time;durP1;ratioP1;P1;durP2;ratioP2;P2;SDS_P1;SDS_P2;PMS_P1;PMS_P2;Temp;Humidity;BMP_temperature;BMP_pressure;BME280_temperature;BME280_humidity;BME280_pressure;Samples;Min_cycle;Max_cycle;Signal;HPM_P1;HPM_P2
2022/07/16 00:02:34;;;;;;;;;;;;;;;17.99;68.13;100489.06;5054695;28;19945;-66
2022/07/16 00:04:59;;;;;;;;;;;;;;;17.92;68.03;100489.50;5022841;28;19924;-65
2022/07/16 00:07:24;;;;;;;;;;;;;;;17.86;68.42;100493.38;5034370;28;19953;-65
2022/07/16 00:09:50;;;;;;;;;;;;;;;17.82;67.96;100501.72;5033907;28;19944;-65
2022/07/16 00:12:15;;;;;;;;;;;;;;;17.79;67.99;100504.56;5033015;28;20117;-65
2022/07/16 00:14:41;;;;;;;;;;;;;;;17.75;68.35;100501.16;5044504;28;19953;-66
2022/07/16 00:17:06;;;;;;;;;;;;;;;17.74;68.55;100495.88;5053337;28;20216;-66
2022/07/16 00:19:31;;;;;;;;;;;;;;;17.73;68.11;100500.38;5051352;28;19959;-66
2022/07/16 00:21:57;;;;;;;;;;;;;;;17.74;69.01;100504.78;5050894;28;20398;-65
2022/07/16 00:24:24;;;;;;;;;;;;;;;17.72;68.88;100498.66;5035709;28;20362;-65
2022/07/16 00:26:49;;;;;;;;;;;;;;;17.66;69.19;100504.34;5036265;28;19916;-65
2022/07/16 00:29:15;;;;;;;;;;;;;;;17.66;69.39;100503.50;5050873;28;19917;-65
2022/07/16 00:31:41;;;;;;;;;;;;;;;17.65;68.87;100508.00;5051196;28;19942;-65
2022/07/16 00:34:07;;;;;;;;;;;;;;;17.63;68.71;100504.50;5052662;28;19958;-66
2022/07/16 00:36:33;;;;;;;;;;;;;;;17.61;69.61;100501.03;5053974;28;19934;-66
2022/07/16 00:38:58;;;;;;;;;;;;;;;17.59;69.56;100499.38;5053518;28;20033;-66
2022/07/16 00:41:23;;;;;;;;;;;;;;;17.55;69.53;100496.00;5053668;28;19936;-66
2022/07/16 00:43:50;;;;;;;;;;;;;;;17.52;69.69;100504.22;5053521;28;20245;-66
2022/07/16 00:46:16;;;;;;;;;;;;;;;17.51;69.95;100505.16;5053624;28;19985;-66
2022/07/16 00:48:41;;;;;;;;;;;;;;;17.48;70.81;100499.94;5053577;28;19950;-65
2022/07/16 00:51:07;;;;;;;;;;;;;;;17.44;71.09;100500.16;5053369;28;19923;-65
2022/07/16 00:53:33;;;;;;;;;;;;;;;17.44;71.55;100494.78;5053248;28;19970;-66
2022/07/16 00:55:59;;;;;;;;;;;;;;;17.45;71.40;100493.81;5053484;28;19923;-66
2022/07/16 00:58:24;;;;;;;;;;;;;;;17.44;71.20;100497.47;5053511;28;19973;-66
2022/07/16 01:00:49;;;;;;;;;;;;;;;17.40;70.36;100501.25;5053517;28;20375;-65
2022/07/16 01:03:14;;;;;;;;;;;;;;;17.34;71.13;100491.72;5053521;28;19941;-65
2022/07/16 01:05:40;;;;;;;;;;;;;;;17.30;71.07;100492.81;5053211;28;19943;-65
2022/07/16 01:08:06;;;;;;;;;;;;;;;17.23;69.72;100495.91;5052987;28;19950;-65
2022/07/16 01:10:31;;;;;;;;;;;;;;;17.23;70.78;100491.41;5051420;28;19943;-65
2022/07/16 01:12:59;;;;;;;;;;;;;;;17.20;71.26;100499.63;5033619;28;19909;-65
2022/07/16 01:15:25;;;;;;;;;;;;;;;17.16;71.47;100497.19;5049444;28;19961;-65
2022/07/16 01:17:50;;;;;;;;;;;;;;;17.15;71.53;100498.13;5052927;28;19925;-66
2022/07/16 01:20:15;;;;;;;;;;;;;;;17.14;71.57;100489.19;5052750;28;19954;-65
2022/07/16 01:22:41;;;;;;;;;;;;;;;17.09;71.34;100497.50;5052888;28;20387;-65
2022/07/16 01:25:10;;;;;;;;;;;;;;;17.09;71.62;100497.50;5051390;28;19935;-65
2022/07/16 01:27:36;;;;;;;;;;;;;;;17.04;71.44;100488.81;5051434;28;19927;-65
2022/07/16 01:30:01;;;;;;;;;;;;;;;17.04;71.40;100488.81;5045218;28;20347;-65
2022/07/16 01:32:26;;;;;;;;;;;;;;;17.01;71.48;100493.47;5031533;28;19935;-66
2022/07/16 01:34:52;;;;;;;;;;;;;;;17.00;71.47;100491.75;5031180;28;20377;-66
2022/07/16 01:37:17;;;;;;;;;;;;;;;16.98;72.18;100482.88;5031641;28;19913;-66
2022/07/16 01:39:43;;;;;;;;;;;;;;;17.02;71.88;100495.19;5032504;28;19975;-66
2022/07/16 01:42:11;;;;;;;;;;;;;;;17.00;71.64;100494.44;5038160;28;19923;-66
2022/07/16 01:44:37;;;;;;;;;;;;;;;16.98;71.90;100489.09;5052668;28;19915;-66
2022/07/16 01:47:03;;;;;;;;;;;;;;;17.01;71.11;100498.84;5052546;28;20010;-66
2022/07/16 01:49:32;;;;;;;;;;;;;;;17.02;70.64;100496.06;5052320;28;19970;-66
2022/07/16 01:52:02;;;;;;;;;;;;;;;17.01;70.56;100493.47;5052691;28;19921;-66
2022/07/16 01:54:28;;;;;;;;;;;;;;;17.00;71.12;100497.97;5052252;28;19970;-66
2022/07/16 01:56:53;;;;;;;;;;;;;;;16.99;70.91;100492.66;5052396;28;19927;-66
2022/07/16 01:59:18;;;;;;;;;;;;;;;16.96;71.07;100498.19;5052342;28;19916;-66
2022/07/16 02:01:43;;;;;;;;;;;;;;;16.97;70.91;100491.88;5052172;28;19964;-66
2022/07/16 02:04:09;;;;;;;;;;;;;;;16.95;70.27;100499.16;5051448;28;19955;-66
2022/07/16 02:06:35;;;;;;;;;;;;;;;17.00;69.76;100499.81;5033842;28;19909;-66
2022/07/16 02:09:00;;;;;;;;;;;;;;;16.97;70.41;100497.25;5031974;28;20391;-66
2022/07/16 02:11:25;;;;;;;;;;;;;;;16.94;70.04;100502.78;5032127;28;19913;-66
2022/07/16 02:13:50;;;;;;;;;;;;;;;16.82;70.17;100498.00;5034160;28;20354;-66
2022/07/16 02:16:16;;;;;;;;;;;;;;;16.76;71.57;100495.66;5050106;28;19930;-66
2022/07/16 02:18:41;;;;;;;;;;;;;;;16.72;72.53;100502.97;5049737;28;19944;-66
2022/07/16 02:21:06;;;;;;;;;;;;;;;16.68;72.92;100497.84;5050055;28;19946;-66
2022/07/16 02:23:31;;;;;;;;;;;;;;;16.63;72.78;100497.22;5050048;28;19927;-66
2022/07/16 02:25:57;;;;;;;;;;;;;;;16.61;72.28;100493.72;5049784;28;19939;-66
2022/07/16 02:28:22;;;;;;;;;;;;;;;16.55;72.18;100499.41;5032378;28;19924;-66
2022/07/16 02:30:48;;;;;;;;;;;;;;;16.50;73.54;100496.06;5050313;28;19927;-66
2022/07/16 02:33:15;;;;;;;;;;;;;;;16.47;73.64;100493.53;5033725;28;19934;-66
2022/07/16 02:35:40;;;;;;;;;;;;;;;16.43;74.24;100494.59;5030690;28;20364;-66
2022/07/16 02:38:06;;;;;;;;;;;;;;;16.39;74.57;100493.88;5030249;28;19934;-66
2022/07/16 02:40:34;;;;;;;;;;;;;;;16.36;74.84;100495.84;5030245;28;20020;-66
2022/07/16 02:43:01;;;;;;;;;;;;;;;16.32;75.64;100488.88;5030134;28;19919;-66
2022/07/16 02:45:26;;;;;;;;;;;;;;;16.29;75.20;100489.88;5046393;28;20348;-66
2022/07/16 02:47:52;;;;;;;;;;;;;;;16.26;75.78;100487.34;5050169;28;19963;-66
2022/07/16 02:50:17;;;;;;;;;;;;;;;16.25;75.65;100495.47;5049957;28;20286;-66
2022/07/16 02:52:42;;;;;;;;;;;;;;;16.23;76.71;100500.03;5051375;28;19923;-66
2022/07/16 02:55:08;;;;;;;;;;;;;;;16.21;76.89;100493.91;5051254;28;19927;-66
2022/07/16 02:57:33;;;;;;;;;;;;;;;16.18;78.34;100494.91;5051309;28;19924;-66
2022/07/16 02:59:58;;;;;;;;;;;;;;;16.19;78.01;100495.78;5051759;28;19979;-66
2022/07/16 03:02:27;;;;;;;;;;;;;;;16.20;77.17;100498.41;5051160;28;19927;-67
2022/07/16 03:04:52;;;;;;;;;;;;;;;16.21;77.45;100499.28;5050982;28;19945;-67
2022/07/16 03:07:17;;;;;;;;;;;;;;;16.22;76.40;100498.31;5051075;28;19939;-67
2022/07/16 03:09:43;;;;;;;;;;;;;;;16.23;76.83;100497.38;5051066;28;20051;-67
2022/07/16 03:12:08;;;;;;;;;;;;;;;16.21;76.13;100504.66;5051067;28;19923;-66
2022/07/16 03:14:33;;;;;;;;;;;;;;;16.19;77.52;100506.53;5051008;28;19934;-66
2022/07/16 03:16:58;;;;;;;;;;;;;;;16.17;75.22;100500.34;5051517;28;20265;-66
2022/07/16 03:19:24;;;;;;;;;;;;;;;16.20;75.20;100503.75;5047541;28;19962;-66
2022/07/16 03:21:49;;;;;;;;;;;;;;;16.21;74.67;100508.19;5031129;28;20331;-66
2022/07/16 03:24:14;;;;;;;;;;;;;;;16.21;74.60;100504.66;5031179;28;19926;-66
2022/07/16 03:26:39;;;;;;;;;;;;;;;16.18;75.16;100502.06;5037845;28;19915;-66
2022/07/16 03:29:05;;;;;;;;;;;;;;;16.17;74.58;100503.03;5055067;28;20049;-66
2022/07/16 03:31:30;;;;;;;;;;;;;;;16.16;74.43;100504.00;5037849;28;20400;-66
2022/07/16 03:33:55;;;;;;;;;;;;;;;16.15;74.30;100507.59;5034904;28;19967;-66
2022/07/16 03:36:22;;;;;;;;;;;;;;;16.12;75.37;100503.25;5034991;28;19939;-66
2022/07/16 03:39:06;;;;;;;;;;;;;;;16.09;75.71;100505.22;5034960;28;20318;-66
2022/07/16 03:41:32;;;;;;;;;;;;;;;16.07;74.89;100499.03;5034980;28;19920;-66
2022/07/16 03:43:58;;;;;;;;;;;;;;;16.07;75.92;100504.41;5039162;28;19930;-66
2022/07/16 03:46:23;;;;;;;;;;;;;;;16.04;76.84;100505.44;5054612;28;20026;-66
2022/07/16 03:48:48;;;;;;;;;;;;;;;16.00;77.60;100511.00;5054656;28;19954;-66
2022/07/16 03:51:14;;;;;;;;;;;;;;;15.95;77.32;100508.53;5053113;28;20390;-66
2022/07/16 03:53:39;;;;;;;;;;;;;;;15.93;77.49;100512.25;5052799;28;19924;-66
2022/07/16 03:56:05;;;;;;;;;;;;;;;15.93;78.50;100520.28;5053084;28;20397;-66
2022/07/16 03:58:30;;;;;;;;;;;;;;;15.89;79.20;100518.69;5053107;28;19934;-66
2022/07/16 04:00:55;;;;;;;;;;;;;;;15.89;79.52;100524.06;5054175;28;19971;-66
2022/07/16 04:03:21;;;;;;;;;;;;;;;15.92;79.56;100529.28;5039113;28;19985;-66
2022/07/16 04:05:47;;;;;;;;;;;;;;;15.88;80.25;100523.16;5033219;28;19978;-67
2022/07/16 04:08:12;;;;;;;;;;;;;;;15.90;80.49;100528.50;5032911;28;19921;-66
2022/07/16 04:10:37;;;;;;;;;;;;;;;15.89;80.06;100529.41;5033060;28;20327;-66
2022/07/16 04:13:02;;;;;;;;;;;;;;;15.88;80.69;100533.06;5032792;28;19986;-67
2022/07/16 04:15:28;;;;;;;;;;;;;;;15.89;80.80;100532.09;5049623;28;20031;-67
2022/07/16 04:17:53;;;;;;;;;;;;;;;15.88;81.11;100527.69;5052777;28;20302;-67
2022/07/16 04:20:19;;;;;;;;;;;;;;;15.91;81.07;100533.78;5052687;28;19955;-67
2022/07/16 04:22:44;;;;;;;;;;;;;;;15.92;81.92;100534.63;5052803;28;20004;-67
2022/07/16 04:25:12;;;;;;;;;;;;;;;15.91;81.98;100531.09;5053521;28;19969;-67
2022/07/16 04:27:38;;;;;;;;;;;;;;;15.96;82.33;100536.25;5052777;28;20007;-67
2022/07/16 04:30:03;;;;;;;;;;;;;;;15.98;81.32;100539.75;5052846;28;20039;-67
2022/07/16 04:32:28;;;;;;;;;;;;;;;16.04;81.42;100544.81;5052394;28;20312;-67
2022/07/16 04:34:54;;;;;;;;;;;;;;;16.12;81.48;100531.91;5050923;28;20312;-67
2022/07/16 04:37:19;;;;;;;;;;;;;;;16.15;81.87;100531.75;5033456;28;19913;-67
2022/07/16 04:39:44;;;;;;;;;;;;;;;16.17;81.37;100540.59;5031571;28;19949;-67
2022/07/16 04:42:10;;;;;;;;;;;;;;;16.21;81.36;100534.16;5031375;28;19925;-67
2022/07/16 04:44:35;;;;;;;;;;;;;;;16.24;81.97;100542.06;5040900;28;19950;-67
2022/07/16 04:47:00;;;;;;;;;;;;;;;16.30;81.28;100549.81;5050901;28;19928;-67
2022/07/16 04:49:25;;;;;;;;;;;;;;;16.37;80.60;100544.09;5051148;28;19986;-67
2022/07/16 04:51:51;;;;;;;;;;;;;;;16.49;80.45;100545.38;5051476;28;19908;-67
2022/07/16 04:54:16;;;;;;;;;;;;;;;16.63;79.51;100540.19;5052447;28;20352;-67
2022/07/16 04:56:41;;;;;;;;;;;;;;;16.75;77.71;100555.72;5052274;28;19930;-67
2022/07/16 04:59:06;;;;;;;;;;;;;;;16.80;77.43;100543.78;5052342;28;19923;-66
2022/07/16 05:01:32;;;;;;;;;;;;;;;16.88;77.01;100556.84;5052389;28;19943;-66
2022/07/16 05:03:57;;;;;;;;;;;;;;;17.01;76.15;100552.59;5052065;28;19931;-66
2022/07/16 05:06:22;;;;;;;;;;;;;;;17.15;75.65;100552.75;5052171;28;19991;-66
2022/07/16 05:08:47;;;;;;;;;;;;;;;17.27;75.92;100552.13;5052183;28;19939;-66
2022/07/16 05:11:13;;;;;;;;;;;;;;;17.43;76.07;100560.28;5052758;28;19909;-66
2022/07/16 05:13:38;;;;;;;;;;;;;;;17.55;74.73;100544.41;5051863;28;19919;-66
2022/07/16 05:16:03;;;;;;;;;;;;;;;17.70;74.89;100543.59;5051924;28;19923;-66
2022/07/16 05:18:29;;;;;;;;;;;;;;;17.85;74.53;100548.16;5011984;28;1142336;-66
2022/07/16 05:20:54;;;;;;;;;;;;;;;18.10;73.32;100543.16;5053309;28;19982;-66
2022/07/16 05:23:19;;;;;;;;;;;;;;;18.43;71.22;100551.25;5053172;28;20291;-67
2022/07/16 05:25:45;;;;;;;;;;;;;;;18.60;70.06;100548.47;5045422;28;20006;-67
2022/07/16 05:28:10;;;;;;;;;;;;;;;18.75;69.14;100552.09;5049104;28;19939;-67
2022/07/16 05:30:35;;;;;;;;;;;;;;;18.78;68.22;100541.16;5052729;28;19908;-66
2022/07/16 05:33:00;;;;;;;;;;;;;;;18.84;68.15;100557.84;5048049;28;19974;-66
2022/07/16 05:35:26;;;;;;;;;;;;;;;18.94;68.14;100552.78;5033071;28;19920;-66
2022/07/16 05:37:51;;;;;;;;;;;;;;;19.03;66.86;100554.94;5031250;28;19919;-66
2022/07/16 05:40:16;;;;;;;;;;;;;;;19.16;66.92;100561.38;5030981;28;19923;-66
2022/07/16 05:42:42;;;;;;;;;;;;;;;19.27;65.82;100561.59;5030823;28;19975;-66
2022/07/16 05:45:08;;;;;;;;;;;;;;;19.41;64.86;100565.25;5050813;28;19976;-66
2022/07/16 05:47:33;;;;;;;;;;;;;;;19.54;65.21;100560.84;5050075;28;19931;-66
2022/07/16 05:50:00;;;;;;;;;;;;;;;19.71;64.87;100559.81;5050083;28;19947;-66
2022/07/16 05:52:25;;;;;;;;;;;;;;;19.77;63.01;100563.97;5051508;28;20282;-66
2022/07/16 05:54:51;;;;;;;;;;;;;;;19.90;63.22;100576.59;5052616;28;19923;-66
2022/07/16 05:57:16;;;;;;;;;;;;;;;20.02;62.07;100566.88;5052115;28;20296;-65
2022/07/16 05:59:41;;;;;;;;;;;;;;;20.10;60.68;100565.44;5052221;28;20400;-65
2022/07/16 06:02:06;;;;;;;;;;;;;;;20.26;61.19;100571.63;5052189;28;19934;-65
2022/07/16 06:04:32;;;;;;;;;;;;;;;20.37;60.46;100569.13;5052250;28;19981;-65
2022/07/16 06:06:57;;;;;;;;;;;;;;;20.54;59.00;100568.06;5052142;28;19942;-65
2022/07/16 06:09:22;;;;;;;;;;;;;;;20.62;58.81;100569.28;5050478;28;19951;-65
2022/07/16 06:11:48;;;;;;;;;;;;;;;20.76;57.17;100576.47;5049863;28;19916;-65
2022/07/16 06:14:13;;;;;;;;;;;;;;;20.86;55.12;100578.50;5051910;28;20089;-65
2022/07/16 06:16:40;;;;;;;;;;;;;;;20.97;56.42;100574.22;5052002;28;19921;-65
2022/07/16 06:19:05;;;;;;;;;;;;;;;21.07;56.35;100580.78;5051681;28;19958;-65
2022/07/16 06:21:30;;;;;;;;;;;;;;;21.21;55.60;100583.44;5052060;28;20337;-65
2022/07/16 06:23:55;;;;;;;;;;;;;;;21.33;55.55;100583.47;5051987;28;19973;-65
2022/07/16 06:26:21;;;;;;;;;;;;;;;21.47;54.63;100585.22;5051613;28;19938;-65
2022/07/16 06:28:46;;;;;;;;;;;;;;;21.52;53.82;100583.94;5051825;28;20497;-65
2022/07/16 06:31:11;;;;;;;;;;;;;;;21.73;53.49;100598.72;5051534;28;19920;-65
2022/07/16 06:33:36;;;;;;;;;;;;;;;21.87;51.50;100595.97;5039462;28;19933;-65
2022/07/16 06:36:02;;;;;;;;;;;;;;;22.07;53.32;100598.13;5032023;28;19917;-65
2022/07/16 06:38:27;;;;;;;;;;;;;;;22.24;53.97;100599.63;5031681;28;19959;-65
2022/07/16 06:40:52;;;;;;;;;;;;;;;22.33;55.27;100600.81;5031622;28;19929;-65
2022/07/16 06:43:18;;;;;;;;;;;;;;;22.46;53.20;100599.84;5031689;28;19915;-66
2022/07/16 06:45:43;;;;;;;;;;;;;;;22.59;52.41;100603.44;5050421;28;19913;-65
2022/07/16 06:48:09;;;;;;;;;;;;;;;22.71;52.12;100610.69;5051693;28;19950;-65
2022/07/16 06:50:34;;;;;;;;;;;;;;;22.86;51.98;100614.13;5051490;28;19936;-65
2022/07/16 06:52:59;;;;;;;;;;;;;;;22.95;51.41;100608.00;5050723;28;20002;-65
2022/07/16 06:55:25;;;;;;;;;;;;;;;22.95;51.00;100602.56;5049237;28;20017;-65
2022/07/16 06:57:50;;;;;;;;;;;;;;;23.03;49.88;100621.91;5049405;28;20541;-65
2022/07/16 07:00:15;;;;;;;;;;;;;;;23.17;49.60;100619.00;5042113;28;19935;-65
2022/07/16 07:02:41;;;;;;;;;;;;;;;23.33;48.93;100609.63;5044938;28;20026;-64
2022/07/16 07:05:06;;;;;;;;;;;;;;;23.34;49.29;100588.78;5049308;28;19943;-64
2022/07/16 07:07:32;;;;;;;;;;;;;;;23.63;47.59;100616.41;5049210;28;20133;-65
2022/07/16 07:09:57;;;;;;;;;;;;;;;23.68;47.38;100614.19;5050888;28;19950;-65
2022/07/16 07:12:22;;;;;;;;;;;;;;;23.78;46.92;100605.25;5051124;28;20032;-65
2022/07/16 07:14:47;;;;;;;;;;;;;;;23.94;46.16;100604.88;5050925;28;20284;-64
2022/07/16 07:17:13;;;;;;;;;;;;;;;24.03;46.42;100604.22;5051721;28;20027;-64
2022/07/16 07:19:38;;;;;;;;;;;;;;;24.26;45.98;100611.41;5051077;28;19963;-64
2022/07/16 07:22:03;;;;;;;;;;;;;;;24.34;45.67;100608.94;5051177;28;20399;-64
2022/07/16 07:24:29;;;;;;;;;;;;;;;24.59;46.48;100604.16;5046201;28;19923;-65
2022/07/16 07:26:54;;;;;;;;;;;;;;;24.74;44.48;100601.19;5039706;28;20240;-65
2022/07/16 07:29:19;;;;;;;;;;;;;;;24.91;45.00;100598.81;5051091;28;19950;-65
2022/07/16 07:31:45;;;;;;;;;;;;;;;25.21;45.39;100607.16;5051014;28;20402;-65
2022/07/16 07:34:10;;;;;;;;;;;;;;;25.52;44.39;100611.78;5051004;28;19929;-65
2022/07/16 07:36:35;;;;;;;;;;;;;;;25.72;43.19;100604.63;5051153;28;19935;-65
2022/07/16 07:39:00;;;;;;;;;;;;;;;26.13;42.47;100606.56;5050696;28;19975;-65
2022/07/16 07:41:26;;;;;;;;;;;;;;;26.45;41.77;100619.09;5050972;28;19978;-66
2022/07/16 07:43:51;;;;;;;;;;;;;;;26.76;42.03;100607.19;5049729;28;19923;-65
2022/07/16 07:46:16;;;;;;;;;;;;;;;27.00;40.37;100609.56;5049466;28;19913;-65
2022/07/16 07:48:42;;;;;;;;;;;;;;;27.24;40.56;100604.56;5049504;28;19928;-65
2022/07/16 07:51:08;;;;;;;;;;;;;;;27.34;39.36;100612.81;5049107;28;20337;-65
2022/07/16 07:53:34;;;;;;;;;;;;;;;27.71;38.61;100611.97;5049063;28;19935;-65
2022/07/16 07:55:59;;;;;;;;;;;;;;;27.88;38.60;100608.50;5049437;28;19971;-65
2022/07/16 07:58:25;;;;;;;;;;;;;;;28.04;37.46;100606.06;5049548;28;20415;-66
2022/07/16 08:00:54;;;;;;;;;;;;;;;28.15;37.09;100611.41;5049299;28;20006;-66
2022/07/16 08:03:19;;;;;;;;;;;;;;;28.50;36.23;100613.47;5049330;28;19919;-66
2022/07/16 08:05:45;;;;;;;;;;;;;;;28.69;36.27;100615.28;5049290;28;20310;-66
2022/07/16 08:08:10;;;;;;;;;;;;;;;28.98;35.86;100618.75;5048993;28;19978;-66
2022/07/16 08:10:35;;;;;;;;;;;;;;;29.10;34.31;100610.19;5047637;28;19920;-66
2022/07/16 08:13:01;;;;;;;;;;;;;;;29.04;34.33;100616.25;5034276;28;19928;-66
2022/07/16 08:15:26;;;;;;;;;;;;;;;29.22;34.79;100613.59;5049401;28;20399;-66
2022/07/16 08:17:51;;;;;;;;;;;;;;;29.25;33.45;100613.25;5053154;28;19943;-66
2022/07/16 08:20:17;;;;;;;;;;;;;;;29.35;33.60;100611.31;5052601;28;20524;-66
2022/07/16 08:22:42;;;;;;;;;;;;;;;29.50;32.51;100607.91;5052578;28;19936;-66
2022/07/16 08:27:52;;;;;;;;;;;;;;;29.69;33.23;100623.34;5046888;28;20045;-66
2022/07/16 08:30:17;;;;;;;;;;;;;;;29.93;32.23;100609.00;5052558;28;19924;-66
2022/07/16 08:32:43;;;;;;;;;;;;;;;29.96;30.55;100615.03;5052494;28;20276;-66
2022/07/16 08:35:08;;;;;;;;;;;;;;;30.13;30.68;100624.25;5052795;28;20303;-66
2022/07/16 08:37:35;;;;;;;;;;;;;;;30.18;31.21;100617.25;5053337;28;20282;-66
2022/07/16 08:40:02;;;;;;;;;;;;;;;30.19;30.50;100619.00;5053936;28;19927;-66
2022/07/16 08:42:29;;;;;;;;;;;;;;;30.42;32.18;100622.97;5052798;28;20362;-66
2022/07/16 08:44:57;;;;;;;;;;;;;;;30.96;32.15;100620.84;5051780;28;20117;-66
2022/07/16 08:47:22;;;;;;;;;;;;;;;31.10;30.19;100629.34;5052075;28;20280;-66
2022/07/16 08:49:49;;;;;;;;;;;;;;;30.87;29.34;100620.81;5051358;28;19939;-67
2022/07/16 08:52:14;;;;;;;;;;;;;;;30.69;30.08;100625.50;5051919;28;19932;-66
2022/07/16 08:54:40;;;;;;;;;;;;;;;30.86;30.38;100626.50;5051294;28;20260;-66
2022/07/16 08:57:08;;;;;;;;;;;;;;;31.00;28.85;100623.13;5034413;28;20038;-66
2022/07/16 08:59:33;;;;;;;;;;;;;;;31.07;30.39;100628.81;5051984;28;19974;-66
2022/07/16 09:01:59;;;;;;;;;;;;;;;31.27;29.77;100630.28;5052071;28;20016;-67
2022/07/16 09:04:24;;;;;;;;;;;;;;;31.41;30.24;100626.91;5051710;28;19923;-67
2022/07/16 09:06:49;;;;;;;;;;;;;;;31.38;29.58;100628.09;5051919;28;19913;-67
2022/07/16 09:09:15;;;;;;;;;;;;;;;31.40;29.20;100622.44;5051868;28;20426;-67
2022/07/16 09:11:40;;;;;;;;;;;;;;;31.50;30.63;100623.16;5052253;28;19939;-67
2022/07/16 09:14:06;;;;;;;;;;;;;;;31.67;29.36;100616.63;5053210;28;19913;-67
2022/07/16 09:16:33;;;;;;;;;;;;;;;32.02;28.81;100621.84;5053348;28;20457;-67
2022/07/16 09:19:28;;;;;;;;;;;;;;;31.96;28.57;100634.38;5052662;28;19960;-67
2022/07/16 09:21:59;;;;;;;;;;;;;;;31.96;28.70;100628.06;5034687;28;20007;-67
2022/07/16 09:24:34;;;;;;;;;;;;;;;31.79;27.41;100631.78;5049094;28;19928;-67
2022/07/16 09:27:04;;;;;;;;;;;;;;;31.77;29.94;100629.19;5038696;28;20373;-67
2022/07/16 09:29:29;;;;;;;;;;;;;;;31.59;29.99;100630.38;5048840;28;19945;-67
2022/07/16 09:31:54;;;;;;;;;;;;;;;32.01;29.57;100637.50;5051729;28;19921;-67
2022/07/16 09:34:20;;;;;;;;;;;;;;;32.01;29.17;100631.97;5051491;28;19955;-67
2022/07/16 09:36:55;;;;;;;;;;;;;;;31.83;28.27;100628.50;5052714;28;20271;-67
2022/07/16 09:39:21;;;;;;;;;;;;;;;31.92;28.00;100637.66;5052821;28;19923;-67
2022/07/16 09:41:47;;;;;;;;;;;;;;;31.54;27.52;100633.63;5052685;28;19965;-67
2022/07/16 09:44:23;;;;;;;;;;;;;;;31.49;27.45;100636.03;5052132;28;19926;-67
2022/07/16 09:46:57;;;;;;;;;;;;;;;31.68;28.29;100638.47;5052162;28;20338;-67
2022/07/16 09:49:23;;;;;;;;;;;;;;;32.09;28.99;100633.91;5051751;28;20121;-67
2022/07/16 09:51:48;;;;;;;;;;;;;;;32.40;27.15;100636.81;5051373;28;20011;-67
2022/07/16 09:54:26;;;;;;;;;;;;;;;32.64;27.51;100639.50;5050985;28;19999;-67
2022/07/16 09:57:03;;;;;;;;;;;;;;;32.75;26.49;100628.97;5050890;28;20294;-67
2022/07/16 09:59:30;;;;;;;;;;;;;;;32.80;27.42;100634.81;5051693;28;20011;-68
2022/07/16 10:01:55;;;;;;;;;;;;;;;32.55;28.02;100638.69;5034377;28;19924;-66
2022/07/16 10:04:23;;;;;;;;;;;;;;;32.68;27.17;100640.88;5052356;28;20064;-66
2022/07/16 10:06:48;;;;;;;;;;;;;;;32.71;27.39;100630.38;5051885;28;19989;-66
2022/07/16 10:09:14;;;;;;;;;;;;;;;32.74;28.34;100635.53;5052041;28;19952;-66
2022/07/16 10:11:42;;;;;;;;;;;;;;;32.56;28.61;100637.66;5052175;28;19934;-66
2022/07/16 10:14:07;;;;;;;;;;;;;;;32.60;27.26;100632.66;5043872;28;19928;-66
2022/07/16 10:16:43;;;;;;;;;;;;;;;32.54;28.27;100638.88;5052078;28;19923;-66
2022/07/16 10:19:09;;;;;;;;;;;;;;;32.73;28.95;100636.56;5051866;28;19960;-66
2022/07/16 10:21:35;;;;;;;;;;;;;;;32.76;26.98;100632.59;5051626;28;19929;-66
2022/07/16 10:24:05;;;;;;;;;;;;;;;32.42;28.12;100634.75;5051913;28;19915;-65
2022/07/16 10:26:32;;;;;;;;;;;;;;;32.32;29.93;100632.16;5042226;28;20029;-65
2022/07/16 10:28:57;;;;;;;;;;;;;;;32.57;28.92;100630.25;5051853;28;20359;-65
2022/07/16 10:31:37;;;;;;;;;;;;;;;32.84;28.07;100636.19;5051639;28;19933;-65
2022/07/16 10:34:14;;;;;;;;;;;;;;;32.83;27.77;100631.72;5050842;28;19980;-65
2022/07/16 10:36:55;;;;;;;;;;;;;;;32.85;28.04;100637.06;5049955;28;19925;-65
2022/07/16 10:39:22;;;;;;;;;;;;;;;33.26;28.11;100639.47;5031168;28;19927;-65
2022/07/16 10:41:49;;;;;;;;;;;;;;;33.50;26.99;100634.88;5029748;28;19931;-65
2022/07/16 10:44:14;;;;;;;;;;;;;;;33.41;26.69;100627.69;5034698;28;19929;-65
2022/07/16 10:46:59;;;;;;;;;;;;;;;33.41;27.47;100633.22;5048213;28;20405;-66
2022/07/16 10:49:28;;;;;;;;;;;;;;;33.77;27.60;100635.25;5046186;28;19943;-66
2022/07/16 10:51:55;;;;;;;;;;;;;;;33.93;27.42;100631.50;5048031;28;19931;-66
2022/07/16 10:54:20;;;;;;;;;;;;;;;33.92;28.80;100627.06;5047129;28;20491;-65
2022/07/16 10:56:50;;;;;;;;;;;;;;;33.92;27.22;100627.06;5011775;28;20057;-65
2022/07/16 10:59:19;;;;;;;;;;;;;;;33.80;27.36;100622.97;5040038;28;19921;-65
2022/07/16 11:01:46;;;;;;;;;;;;;;;33.97;26.64;100630.94;5046733;28;19925;-66
2022/07/16 11:04:12;;;;;;;;;;;;;;;33.88;26.84;100631.19;5038720;28;19931;-66
2022/07/16 11:06:39;;;;;;;;;;;;;;;34.26;26.65;100625.53;5048575;28;19946;-65
2022/07/16 11:09:05;;;;;;;;;;;;;;;34.30;25.88;100628.78;5050527;28;20137;-65
2022/07/16 11:11:34;;;;;;;;;;;;;;;34.22;26.54;100634.34;5051040;28;19932;-65
2022/07/16 11:14:00;;;;;;;;;;;;;;;34.17;26.65;100634.94;5051262;28;19927;-65
2022/07/16 11:16:26;;;;;;;;;;;;;;;33.92;26.65;100632.56;5050519;28;19930;-65
2022/07/16 11:18:51;;;;;;;;;;;;;;;34.06;26.91;100623.47;5047333;28;19949;-65
2022/07/16 11:21:17;;;;;;;;;;;;;;;33.90;24.87;100624.44;5028601;28;19936;-65
2022/07/16 11:24:01;;;;;;;;;;;;;;;33.38;25.01;100629.75;5031599;28;19934;-65
2022/07/16 11:26:29;;;;;;;;;;;;;;;32.98;25.86;100616.16;5033828;28;19931;-64
2022/07/16 11:28:56;;;;;;;;;;;;;;;32.63;28.68;100610.25;5049206;28;19946;-64
2022/07/16 11:31:32;;;;;;;;;;;;;;;32.86;27.59;100619.47;5049417;28;20016;-65
2022/07/16 11:34:05;;;;;;;;;;;;;;;33.04;27.80;100609.97;5035657;28;20423;-65
2022/07/16 11:36:34;;;;;;;;;;;;;;;33.39;28.29;100616.84;5032007;28;19934;-64
2022/07/16 11:39:03;;;;;;;;;;;;;;;33.85;27.38;100609.47;5048945;28;19923;-64
2022/07/16 11:41:29;;;;;;;;;;;;;;;34.43;26.06;100620.75;5049310;28;20167;-64
2022/07/16 11:43:55;;;;;;;;;;;;;;;34.67;24.94;100628.75;5048485;28;19979;-65
2022/07/16 11:46:24;;;;;;;;;;;;;;;34.84;22.72;100627.53;5047920;28;20312;-64
2022/07/16 11:48:50;;;;;;;;;;;;;;;34.63;23.55;100627.41;5045241;28;19953;-64
2022/07/16 11:51:15;;;;;;;;;;;;;;;34.57;23.87;100622.66;5049094;28;19927;-64
2022/07/16 11:53:40;;;;;;;;;;;;;;;34.61;24.82;100628.66;5031646;28;20038;-64
2022/07/16 11:56:06;;;;;;;;;;;;;;;34.99;24.78;100633.09;5043035;28;20295;-64
2022/07/16 11:58:32;;;;;;;;;;;;;;;34.83;26.30;100622.19;5051231;28;19925;-64
2022/07/16 12:00:58;;;;;;;;;;;;;;;35.03;25.17;100618.69;5040501;28;19935;-65
2022/07/16 12:03:23;;;;;;;;;;;;;;;35.21;25.09;100613.59;5051486;28;19934;-64
2022/07/16 12:05:58;;;;;;;;;;;;;;;35.30;25.82;100620.75;5047962;28;19948;-64
2022/07/16 12:08:23;;;;;;;;;;;;;;;34.98;24.35;100621.16;5050641;28;19956;-64
2022/07/16 12:11:05;;;;;;;;;;;;;;;35.05;26.36;100621.25;5052862;28;20269;-64
2022/07/16 12:13:31;;;;;;;;;;;;;;;34.67;24.25;100619.59;5033722;28;20270;-64
2022/07/16 12:15:57;;;;;;;;;;;;;;;34.76;25.51;100616.56;5052755;28;19930;-64
2022/07/16 12:18:23;;;;;;;;;;;;;;;34.92;26.36;100615.53;5043143;28;19925;-64
2022/07/16 12:20:48;;;;;;;;;;;;;;;35.18;24.62;100622.28;5033665;28;19923;-64
2022/07/16 12:23:17;;;;;;;;;;;;;;;35.53;25.84;100632.53;5036414;28;19929;-65
2022/07/16 12:25:45;;;;;;;;;;;;;;;35.77;24.93;100601.69;5041051;28;19946;-65
2022/07/16 12:28:20;;;;;;;;;;;;;;;35.73;25.92;100616.97;5042437;28;19930;-65
2022/07/16 12:30:58;;;;;;;;;;;;;;;35.66;25.44;100618.84;5033846;28;19935;-64
2022/07/16 12:33:27;;;;;;;;;;;;;;;35.13;24.46;100618.38;5047938;28;19982;-64
2022/07/16 12:35:53;;;;;;;;;;;;;;;35.14;26.31;100622.88;5050994;28;19936;-65